Time;durP1;ratioP1;P1;durP2;ratioP2;P2;SDS_P1;SDS_P2;PMS_P1;PMS_P2;Temp;Humidity;BMP_temperature;BMP_pressure;BME280_temperature;BME280_humidity;BME280_pressure;Samples;Min_cycle;Max_cycle;Signal;HPM_P1;HPM_P2
2021/11/13 00:01:19;;;;;;;23.35;17.05;;;9.20;99.90;;;;;;5145534;27;20081;-65
2021/11/13 00:03:45;;;;;;;26.38;18.20;;;9.40;99.90;;;;;;5148411;27;20043;-65
2021/11/13 00:06:11;;;;;;;20.05;13.93;;;9.30;99.90;;;;;;5143673;27;20039;-65
2021/11/13 00:08:36;;;;;;;26.45;17.35;;;9.40;99.90;;;;;;5116923;27;20073;-65
2021/11/13 00:11:04;;;;;;;25.50;17.38;;;9.40;99.90;;;;;;5140249;27;20480;-65
2021/11/13 00:13:30;;;;;;;24.77;17.98;;;9.40;99.90;;;;;;5145157;27;20090;-65
2021/11/13 00:15:56;;;;;;;25.58;18.27;;;9.10;99.90;;;;;;5138928;27;20093;-65
2021/11/13 00:18:23;;;;;;;22.50;16.80;;;9.10;99.90;;;;;;5114763;28;20486;-65
2021/11/13 00:20:50;;;;;;;24.67;16.92;;;9.30;99.90;;;;;;5122725;27;20047;-65
2021/11/13 00:23:18;;;;;;;25.23;16.90;;;9.20;99.90;;;;;;5139829;27;20043;-65
2021/11/13 00:25:43;;;;;;;24.90;17.80;;;9.30;99.90;;;;;;5142713;27;20082;-65
2021/11/13 00:28:09;;;;;;;24.80;18.25;;;9.10;99.90;;;;;;5131013;27;20039;-65
2021/11/13 00:30:35;;;;;;;24.33;16.50;;;9.00;99.90;;;;;;5135610;27;20031;-65
2021/11/13 00:33:02;;;;;;;23.95;17.85;;;9.10;99.90;;;;;;5148805;27;20039;-65
2021/11/13 00:35:28;;;;;;;28.52;18.02;;;9.20;99.90;;;;;;5126236;28;20066;-65
2021/11/13 00:37:54;;;;;;;23.38;17.70;;;9.30;99.90;;;;;;5134715;27;20510;-65
2021/11/13 00:40:20;;;;;;;27.10;17.23;;;9.30;99.90;;;;;;5132417;27;20069;-65
2021/11/13 00:42:48;;;;;;;25.45;18.65;;;9.20;99.90;;;;;;5122418;27;20047;-65
2021/11/13 00:45:14;;;;;;;24.80;17.67;;;9.00;99.90;;;;;;5117150;28;20043;-65
2021/11/13 00:47:39;;;;;;;25.65;16.60;;;9.00;99.90;;;;;;5134422;27;20372;-65
2021/11/13 00:50:06;;;;;;;20.10;14.70;;;9.10;99.90;;;;;;5124786;27;20081;-65
2021/11/13 00:52:33;;;;;;;24.17;17.77;;;9.20;99.90;;;;;;5127330;27;20044;-66
2021/11/13 00:54:59;;;;;;;25.75;17.52;;;9.20;99.90;;;;;;5123614;27;20043;-65
2021/11/13 00:57:25;;;;;;;27.30;18.77;;;9.30;99.90;;;;;;5130148;27;20058;-65
2021/11/13 00:59:51;;;;;;;24.77;17.85;;;9.20;99.90;;;;;;5148748;27;20050;-65
2021/11/13 01:02:16;;;;;;;26.98;17.58;;;9.40;99.90;;;;;;5118709;27;20056;-65
2021/11/13 01:04:42;;;;;;;25.67;17.77;;;9.40;99.90;;;;;;5148856;27;20039;-65
2021/11/13 01:07:09;;;;;;;25.48;18.60;;;9.40;99.90;;;;;;5149277;27;20035;-65
2021/11/13 01:09:35;;;;;;;26.88;18.30;;;9.20;99.90;;;;;;5123734;27;20411;-65
2021/11/13 01:12:01;;;;;;;31.20;17.55;;;9.40;99.90;;;;;;5126155;27;20043;-65
2021/11/13 01:14:28;;;;;;;27.60;19.52;;;9.30;99.90;;;;;;5116879;27;20051;-65
2021/11/13 01:16:54;;;;;;;27.10;18.65;;;9.40;99.90;;;;;;5123774;27;20491;-65
2021/11/13 01:19:21;;;;;;;25.77;18.35;;;9.20;99.90;;;;;;5144334;27;20035;-65
2021/11/13 01:21:47;;;;;;;25.67;18.35;;;9.30;99.90;;;;;;5123575;27;20039;-65
2021/11/13 01:24:14;;;;;;;24.90;19.05;;;9.20;99.90;;;;;;5127198;27;20084;-65
2021/11/13 01:26:40;;;;;;;24.27;18.27;;;9.10;99.90;;;;;;5127387;27;20050;-65
2021/11/13 01:29:06;;;;;;;27.58;20.00;;;9.20;99.90;;;;;;5141626;27;20059;-65
2021/11/13 01:31:31;;;;;;;26.67;19.23;;;9.10;99.90;;;;;;5123139;27;20051;-65
2021/11/13 01:33:57;;;;;;;26.52;19.85;;;9.20;99.90;;;;;;5124345;28;20051;-65
2021/11/13 01:36:24;;;;;;;28.02;18.88;;;9.20;99.90;;;;;;5102991;27;20078;-65
2021/11/13 01:38:50;;;;;;;25.77;18.70;;;9.20;99.90;;;;;;5117333;27;20532;-65
2021/11/13 01:41:16;;;;;;;26.88;19.63;;;9.40;99.90;;;;;;5127929;27;20043;-65
2021/11/13 01:43:42;;;;;;;29.67;20.52;;;9.30;99.90;;;;;;5134756;27;20035;-65
2021/11/13 01:46:10;;;;;;;28.63;17.13;;;9.30;99.90;;;;;;5124437;27;20082;-65
2021/11/13 01:48:36;;;;;;;29.17;20.05;;;9.30;99.90;;;;;;5129293;27;20051;-65
2021/11/13 01:51:13;;;;;;;27.63;19.55;;;9.30;99.90;;;;;;5129420;27;20070;-65
2021/11/13 01:53:39;;;;;;;28.15;20.75;;;9.60;99.90;;;;;;5124331;28;20043;-65
2021/11/13 01:56:05;;;;;;;27.52;19.08;;;9.40;99.90;;;;;;5128202;27;20477;-65
2021/11/13 01:58:30;;;;;;;27.15;19.05;;;9.50;99.90;;;;;;5129230;27;20055;-65
2021/11/13 02:00:57;;;;;;;30.52;19.80;;;9.70;99.90;;;;;;5128966;27;20101;-65
2021/11/13 02:03:24;;;;;;;28.33;21.25;;;9.40;99.90;;;;;;5101845;28;20054;-65
2021/11/13 02:05:50;;;;;;;28.60;20.70;;;9.20;99.90;;;;;;5119527;28;20122;-65
2021/11/13 02:08:18;;;;;;;28.33;20.90;;;9.20;99.90;;;;;;5140526;27;20046;-65
2021/11/13 02:10:44;;;;;;;33.40;23.02;;;9.30;99.90;;;;;;5129128;27;20055;-65
2021/11/13 02:13:10;;;;;;;30.27;21.33;;;9.20;99.90;;;;;;5122266;28;20047;-65
2021/11/13 02:15:36;;;;;;;30.05;21.83;;;9.10;99.90;;;;;;5128748;27;20450;-65
2021/11/13 02:18:03;;;;;;;24.95;18.83;;;9.20;99.90;;;;;;5128565;27;20039;-65
2021/11/13 02:20:31;;;;;;;31.08;21.52;;;9.10;99.90;;;;;;5105860;27;20051;-65
2021/11/13 02:23:00;;;;;;;29.60;19.40;;;9.20;99.90;;;;;;5108011;28;20518;-65
2021/11/13 02:25:27;;;;;;;27.23;18.98;;;9.20;99.90;;;;;;5136279;27;20051;-65
2021/11/13 02:27:53;;;;;;;25.63;17.25;;;9.40;99.90;;;;;;5114674;27;20051;-66
2021/11/13 02:30:19;;;;;;;22.50;17.55;;;9.40;99.90;;;;;;5135702;27;20043;-65
2021/11/13 02:32:46;;;;;;;24.42;17.45;;;9.40;99.90;;;;;;5120748;28;20047;-65
2021/11/13 02:35:14;;;;;;;25.60;18.42;;;9.30;99.90;;;;;;5105250;28;20052;-66
2021/11/13 02:37:42;;;;;;;23.23;17.23;;;9.30;99.90;;;;;;5128221;27;20047;-65
2021/11/13 02:40:08;;;;;;;25.42;18.73;;;9.50;99.90;;;;;;5107919;28;20044;-65
2021/11/13 02:42:35;;;;;;;22.55;17.73;;;9.20;99.90;;;;;;5122129;27;20052;-65
2021/11/13 02:45:07;;;;;;;21.17;15.93;;;9.30;99.90;;;;;;5116723;28;20051;-65
2021/11/13 02:47:40;;;;;;;21.67;18.15;;;9.40;99.90;;;;;;5083362;28;20051;-65
2021/11/13 02:50:07;;;;;;;20.48;17.02;;;9.30;99.90;;;;;;5124501;28;20100;-65
2021/11/13 02:53:03;;;;;;;20.52;15.70;;;9.00;99.90;;;;;;5100106;28;20048;-65
2021/11/13 02:55:30;;;;;;;19.10;16.80;;;9.20;99.90;;;;;;5091350;28;20146;-65
2021/11/13 02:57:56;;;;;;;19.35;16.77;;;9.30;99.90;;;;;;5126536;28;20036;-65
2021/11/13 03:00:27;;;;;;;19.70;16.17;;;9.20;99.90;;;;;;5125234;28;20051;-65
2021/11/13 03:02:53;;;;;;;20.05;14.93;;;9.20;99.90;;;;;;5101907;28;20201;-65
2021/11/13 03:05:24;;;;;;;18.17;14.25;;;9.20;99.90;;;;;;5113439;28;20046;-65
2021/11/13 03:07:51;;;;;;;18.30;14.77;;;9.40;99.90;;;;;;5125670;28;20043;-65
2021/11/13 03:10:17;;;;;;;18.60;15.18;;;9.30;99.90;;;;;;5130451;27;20444;-65
2021/11/13 03:12:44;;;;;;;20.73;16.23;;;9.30;99.90;;;;;;5113861;28;20070;-65
2021/11/13 03:15:13;;;;;;;17.25;14.50;;;9.30;99.90;;;;;;5121553;28;20040;-65
2021/11/13 03:17:39;;;;;;;15.85;11.38;;;9.50;99.90;;;;;;5107578;28;20062;-65
2021/11/13 03:20:06;;;;;;;17.48;14.82;;;9.50;99.90;;;;;;5098896;28;20051;-65
2021/11/13 03:22:33;;;;;;;16.58;14.15;;;9.50;99.90;;;;;;5111779;28;20060;-65
2021/11/13 03:24:59;;;;;;;18.63;16.35;;;9.40;99.90;;;;;;5121601;28;20042;-65
2021/11/13 03:27:26;;;;;;;22.63;17.08;;;9.30;99.90;;;;;;5112544;27;20051;-65
2021/11/13 03:29:55;;;;;;;22.45;17.95;;;9.20;99.90;;;;;;5131417;27;20032;-65
2021/11/13 03:32:20;;;;;;;20.35;16.60;;;9.10;99.90;;;;;;5105731;28;20069;-65
2021/11/13 03:34:46;;;;;;;17.35;15.40;;;9.10;99.90;;;;;;5108173;28;20052;-65
2021/11/13 03:37:14;;;;;;;19.02;16.52;;;9.30;99.90;;;;;;5121925;28;20627;-65
2021/11/13 03:39:39;;;;;;;19.95;16.13;;;9.30;99.90;;;;;;5104936;28;20059;-65
2021/11/13 03:42:05;;;;;;;19.92;16.63;;;9.20;99.90;;;;;;5107842;27;20047;-65
2021/11/13 03:44:31;;;;;;;18.88;15.27;;;9.20;99.90;;;;;;5127268;28;20083;-65
2021/11/13 03:46:57;;;;;;;19.08;14.13;;;9.50;99.90;;;;;;5110336;28;20043;-65
2021/11/13 03:49:22;;;;;;;17.85;14.40;;;9.60;99.90;;;;;;5128500;27;20067;-65
2021/11/13 03:51:48;;;;;;;22.30;17.05;;;9.70;99.90;;;;;;5106181;28;20040;-65
2021/11/13 03:54:14;;;;;;;20.58;16.50;;;9.50;99.90;;;;;;5132581;28;20039;-65
2021/11/13 03:56:39;;;;;;;21.38;17.48;;;9.50;99.90;;;;;;5118213;28;20526;-65
2021/11/13 03:59:06;;;;;;;21.60;17.45;;;9.40;99.90;;;;;;5128465;28;20042;-65
2021/11/13 04:01:35;;;;;;;23.38;16.42;;;9.30;99.90;;;;;;5109828;28;20079;-65
2021/11/13 04:04:02;;;;;;;22.70;17.37;;;9.40;99.90;;;;;;5105416;28;20061;-65
2021/11/13 04:06:27;;;;;;;22.45;17.67;;;9.40;99.90;;;;;;5114940;28;20112;-65
2021/11/13 04:08:53;;;;;;;22.30;17.75;;;9.40;99.90;;;;;;5111873;28;20078;-65
2021/11/13 04:11:19;;;;;;;21.88;18.25;;;9.30;99.90;;;;;;5113282;28;20047;-65
2021/11/13 04:13:45;;;;;;;24.25;18.90;;;9.30;99.90;;;;;;5119417;28;20159;-65
2021/11/13 04:16:11;;;;;;;24.40;17.80;;;9.20;99.90;;;;;;5104867;28;20491;-65
2021/11/13 04:18:37;;;;;;;22.40;18.00;;;9.20;99.90;;;;;;5118204;28;20051;-65
2021/11/13 04:21:03;;;;;;;25.35;17.90;;;9.20;99.90;;;;;;5119162;28;20089;-65
2021/11/13 04:23:29;;;;;;;24.83;17.85;;;9.40;99.90;;;;;;5089422;28;20055;-65
2021/11/13 04:25:55;;;;;;;25.38;20.00;;;9.40;99.90;;;;;;5124219;28;20050;-65
2021/11/13 04:28:21;;;;;;;23.35;19.48;;;9.30;99.90;;;;;;5116404;28;20118;-65
2021/11/13 04:30:47;;;;;;;26.15;20.15;;;9.40;99.90;;;;;;5079315;28;20404;-65
2021/11/13 04:33:14;;;;;;;27.02;19.67;;;9.40;99.90;;;;;;5124698;28;20055;-65
2021/11/13 04:38:23;;;;;;;25.85;19.60;;;9.30;99.90;;;;;;5110929;28;20044;-65
2021/11/13 04:40:49;;;;;;;25.38;18.92;;;9.40;99.90;;;;;;5106125;28;20051;-65
2021/11/13 04:43:15;;;;;;;24.35;18.42;;;9.40;99.90;;;;;;5112331;28;20036;-65
2021/11/13 04:45:41;;;;;;;27.25;19.35;;;9.40;99.90;;;;;;5100571;28;20048;-65
2021/11/13 04:48:06;;;;;;;26.30;18.30;;;9.30;99.90;;;;;;5095486;28;20047;-65
2021/11/13 04:50:33;;;;;;;26.23;19.08;;;9.50;99.90;;;;;;5128695;28;20050;-65
2021/11/13 04:52:59;;;;;;;24.80;19.05;;;9.50;99.90;;;;;;5118974;28;20042;-65
2021/11/13 04:55:25;;;;;;;26.13;19.67;;;9.40;99.90;;;;;;5106053;28;20039;-65
2021/11/13 04:57:50;;;;;;;25.63;19.90;;;9.40;99.90;;;;;;5102930;28;20092;-65
2021/11/13 05:00:20;;;;;;;27.42;19.45;;;9.30;99.90;;;;;;5106603;28;20050;-65
2021/11/13 05:02:46;;;;;;;25.13;18.92;;;9.40;99.90;;;;;;5124833;28;20051;-65
2021/11/13 05:05:12;;;;;;;25.95;18.77;;;9.50;99.90;;;;;;5120868;28;20105;-65
2021/11/13 05:07:38;;;;;;;27.02;19.33;;;9.50;99.90;;;;;;5097444;28;20051;-65
2021/11/13 05:10:04;;;;;;;26.08;19.17;;;9.70;99.90;;;;;;5127091;28;20042;-65
2021/11/13 05:12:30;;;;;;;26.15;19.50;;;9.60;99.90;;;;;;5114328;28;20046;-65
2021/11/13 05:14:56;;;;;;;22.80;16.08;;;9.50;99.90;;;;;;5126668;28;20036;-65
2021/11/13 05:17:21;;;;;;;28.33;19.77;;;9.70;99.90;;;;;;5123004;28;20101;-65
2021/11/13 05:19:47;;;;;;;28.90;21.15;;;9.50;99.90;;;;;;5093390;28;20109;-65
2021/11/13 05:22:13;;;;;;;29.15;19.80;;;9.50;99.90;;;;;;5120434;27;20059;-65
2021/11/13 05:24:39;;;;;;;30.13;21.73;;;9.50;99.90;;;;;;5136575;27;20111;-65
2021/11/13 05:27:05;;;;;;;26.90;19.70;;;9.40;99.90;;;;;;5117226;28;20043;-65
2021/11/13 05:29:31;;;;;;;23.00;18.65;;;9.60;99.90;;;;;;5116878;28;20054;-65
2021/11/13 05:31:57;;;;;;;25.17;19.33;;;9.60;99.90;;;;;;5139310;27;20051;-65
2021/11/13 05:34:22;;;;;;;27.50;20.40;;;9.50;99.90;;;;;;5129857;27;20035;-65
2021/11/13 05:36:48;;;;;;;26.48;19.65;;;9.50;99.90;;;;;;5130234;27;20077;-65
2021/11/13 05:39:14;;;;;;;24.75;20.27;;;9.60;99.90;;;;;;5123358;27;20064;-65
2021/11/13 05:41:41;;;;;;;25.88;19.38;;;9.60;99.90;;;;;;5121366;27;20092;-65
2021/11/13 05:44:07;;;;;;;24.52;19.25;;;9.50;99.90;;;;;;5141607;27;20047;-65
2021/11/13 05:46:33;;;;;;;24.98;19.58;;;9.60;99.90;;;;;;5143292;27;20047;-65
2021/11/13 05:48:59;;;;;;;26.10;19.02;;;9.60;99.90;;;;;;5124371;28;20066;-65
2021/11/13 05:51:24;;;;;;;26.35;18.88;;;9.50;99.90;;;;;;5114910;28;20409;-65
2021/11/13 05:53:50;;;;;;;24.05;19.35;;;9.50;99.90;;;;;;5116714;28;20047;-65
2021/11/13 05:56:16;;;;;;;28.30;19.17;;;9.60;99.90;;;;;;5132940;27;20044;-65
2021/11/13 05:58:42;;;;;;;24.20;19.45;;;9.50;99.90;;;;;;5108392;27;20090;-65
2021/11/13 06:01:08;;;;;;;23.95;19.25;;;9.60;99.90;;;;;;5145611;27;20043;-65
2021/11/13 06:03:33;;;;;;;26.65;19.08;;;9.70;99.90;;;;;;5140761;27;20090;-65
2021/11/13 06:05:59;;;;;;;24.88;18.63;;;9.70;99.90;;;;;;5147786;27;20074;-65
2021/11/13 06:08:25;;;;;;;24.27;19.05;;;9.70;99.90;;;;;;5122711;28;20518;-65
2021/11/13 06:10:50;;;;;;;26.13;19.10;;;9.70;99.90;;;;;;5146328;27;20047;-65
2021/11/13 06:13:16;;;;;;;26.92;20.00;;;9.60;99.90;;;;;;5124715;28;20079;-65
2021/11/13 06:15:42;;;;;;;24.65;18.95;;;9.60;99.90;;;;;;5133400;27;20517;-65
2021/11/13 06:18:08;;;;;;;24.48;18.08;;;9.60;99.90;;;;;;5121587;27;20047;-65
2021/11/13 06:20:34;;;;;;;24.65;18.60;;;9.60;99.90;;;;;;5128696;27;20066;-65
2021/11/13 06:22:59;;;;;;;25.80;18.10;;;9.60;99.90;;;;;;5128710;27;20062;-65
2021/11/13 06:25:25;;;;;;;24.40;19.80;;;9.60;99.90;;;;;;5116817;28;20032;-65
2021/11/13 06:27:51;;;;;;;24.27;18.90;;;9.50;99.90;;;;;;5115313;27;20039;-65
2021/11/13 06:30:18;;;;;;;25.88;19.77;;;9.50;99.90;;;;;;5107933;27;20076;-65
2021/11/13 06:32:45;;;;;;;24.60;18.50;;;9.50;99.90;;;;;;5137499;27;20043;-65
2021/11/13 06:35:12;;;;;;;21.92;16.88;;;9.40;99.90;;;;;;5122088;28;20074;-65
2021/11/13 06:37:38;;;;;;;24.33;18.55;;;9.60;99.90;;;;;;5128061;27;20076;-65
2021/11/13 06:40:07;;;;;;;24.80;18.02;;;9.70;99.90;;;;;;5128341;27;20046;-65
2021/11/13 06:42:34;;;;;;;21.42;17.42;;;9.70;99.90;;;;;;5124194;28;20098;-65
2021/11/13 06:44:59;;;;;;;24.20;18.02;;;9.60;99.90;;;;;;5128563;27;20043;-65
2021/11/13 06:47:25;;;;;;;23.60;18.65;;;9.70;99.90;;;;;;5138568;27;20043;-65
2021/11/13 06:49:51;;;;;;;19.55;16.52;;;9.70;99.90;;;;;;5128367;27;20102;-65
2021/11/13 06:52:17;;;;;;;20.88;17.48;;;9.80;99.90;;;;;;5139216;27;20145;-65
2021/11/13 06:54:42;;;;;;;23.90;19.05;;;9.80;99.90;;;;;;5121984;27;20070;-65
2021/11/13 06:57:08;;;;;;;22.88;17.58;;;9.80;99.90;;;;;;5108345;27;20043;-65
2021/11/13 06:59:34;;;;;;;19.75;16.83;;;9.70;99.90;;;;;;5145954;27;20058;-65
2021/11/13 07:02:00;;;;;;;20.35;15.75;;;9.80;99.90;;;;;;5139326;27;20074;-65
2021/11/13 07:04:26;;;;;;;23.00;18.92;;;9.70;99.90;;;;;;5145439;27;20036;-65
2021/11/13 07:06:51;;;;;;;23.58;18.50;;;9.70;99.90;;;;;;5121167;27;20051;-65
2021/11/13 07:09:17;;;;;;;24.65;19.73;;;9.50;99.90;;;;;;5143708;27;20039;-65
2021/11/13 07:11:43;;;;;;;21.85;18.08;;;9.50;99.90;;;;;;5144676;27;20039;-65
2021/11/13 07:14:09;;;;;;;21.38;17.80;;;9.50;99.90;;;;;;5138099;27;20037;-65
2021/11/13 07:16:35;;;;;;;23.58;18.67;;;9.50;99.90;;;;;;5122633;27;20039;-66
2021/11/13 07:19:01;;;;;;;23.90;19.25;;;9.50;99.90;;;;;;5110439;28;20035;-63
2021/11/13 07:21:27;;;;;;;24.85;18.50;;;9.50;99.90;;;;;;5084269;28;20060;-64
2021/11/13 07:23:54;;;;;;;22.02;18.67;;;9.60;99.90;;;;;;5124193;28;20044;-63
2021/11/13 07:26:21;;;;;;;25.10;19.25;;;9.60;99.90;;;;;;5107751;28;20075;-63
2021/11/13 07:28:49;;;;;;;25.95;19.92;;;9.70;99.90;;;;;;5107772;27;20044;-62
2021/11/13 07:31:18;;;;;;;25.90;19.58;;;9.50;99.90;;;;;;5104947;28;20043;-62
2021/11/13 07:33:46;;;;;;;27.67;21.80;;;9.50;99.90;;;;;;5109259;27;20054;-62
2021/11/13 07:36:12;;;;;;;26.95;20.08;;;9.40;99.90;;;;;;5096847;28;20047;-63
2021/11/13 07:38:41;;;;;;;27.08;20.50;;;9.40;99.90;;;;;;5132481;27;20075;-62
2021/11/13 07:41:08;;;;;;;27.75;21.55;;;9.60;99.90;;;;;;5107586;28;20043;-63
2021/11/13 07:43:34;;;;;;;26.45;20.70;;;9.40;99.90;;;;;;5105772;28;20051;-63
2021/11/13 07:45:59;;;;;;;28.25;19.55;;;9.50;99.90;;;;;;5091697;28;20043;-63
2021/11/13 07:48:25;;;;;;;27.02;20.45;;;9.60;99.90;;;;;;5089237;28;20031;-63
2021/11/13 07:50:51;;;;;;;31.85;21.95;;;9.70;99.90;;;;;;5125837;28;20095;-63
2021/11/13 07:53:17;;;;;;;27.23;21.15;;;9.70;99.90;;;;;;5106677;27;20063;-63
2021/11/13 07:55:43;;;;;;;34.50;22.05;;;9.70;99.90;;;;;;5106153;28;20242;-63
2021/11/13 07:58:13;;;;;;;26.95;20.90;;;9.70;99.90;;;;;;5115908;28;20039;-63
2021/11/13 08:00:39;;;;;;;31.55;22.02;;;9.70;99.90;;;;;;5106136;28;20052;-63
2021/11/13 08:03:05;;;;;;;31.77;21.35;;;9.70;99.90;;;;;;5110282;28;20044;-63
2021/11/13 08:05:30;;;;;;;31.77;21.90;;;9.80;99.90;;;;;;5095688;28;20036;-63
2021/11/13 08:07:56;;;;;;;32.25;21.95;;;9.70;99.90;;;;;;5110035;28;20058;-63
2021/11/13 08:10:22;;;;;;;32.40;21.70;;;9.90;99.90;;;;;;5112463;28;20058;-63
2021/11/13 08:12:48;;;;;;;34.75;23.75;;;9.90;99.90;;;;;;5091637;28;20060;-65
2021/11/13 08:15:16;;;;;;;33.08;22.85;;;9.80;99.90;;;;;;5118514;28;20035;-64
2021/11/13 08:17:41;;;;;;;33.53;23.35;;;10.00;99.90;;;;;;5094989;28;20092;-64
2021/11/13 08:20:09;;;;;;;29.85;22.35;;;9.90;99.90;;;;;;5120659;28;20044;-65
2021/11/13 08:22:36;;;;;;;34.30;23.05;;;9.80;99.90;;;;;;5122824;28;20048;-61
2021/11/13 08:25:04;;;;;;;33.67;23.10;;;9.70;99.90;;;;;;5105156;28;20069;-61
2021/11/13 08:27:30;;;;;;;35.97;23.10;;;9.70;99.90;;;;;;5109249;28;20077;-61
2021/11/13 08:29:56;;;;;;;34.53;22.80;;;9.80;99.90;;;;;;5129243;28;20103;-61
2021/11/13 08:32:22;;;;;;;35.97;23.05;;;9.80;99.90;;;;;;5098653;28;20050;-61
2021/11/13 08:34:47;;;;;;;38.42;24.52;;;9.80;99.90;;;;;;5114700;28;20054;-61
2021/11/13 08:37:13;;;;;;;37.60;24.52;;;9.80;99.90;;;;;;5125381;28;20047;-62
2021/11/13 08:39:39;;;;;;;36.95;23.50;;;9.80;99.90;;;;;;5094174;28;20059;-61
2021/11/13 08:42:09;;;;;;;36.92;23.83;;;9.80;99.90;;;;;;5113516;28;20063;-62
2021/11/13 08:44:39;;;;;;;34.08;23.25;;;9.90;99.90;;;;;;5116395;28;20043;-62
2021/11/13 08:47:05;;;;;;;;;;;9.90;99.90;;;;;;5100613;28;20117;-62
2021/11/13 08:49:31;;;;;;;36.75;22.90;;;9.90;99.90;;;;;;5109503;28;19958;-62
2021/11/13 08:51:58;;;;;;;32.20;22.63;;;9.80;99.90;;;;;;5109377;28;20040;-65
2021/11/13 08:54:24;;;;;;;34.15;23.92;;;9.80;99.90;;;;;;5083792;28;20056;-62
2021/11/13 08:56:49;;;;;;;36.28;24.27;;;9.90;99.90;;;;;;5106187;28;20053;-63
2021/11/13 08:59:15;;;;;;;36.50;23.73;;;9.90;99.90;;;;;;5117478;28;20122;-62
2021/11/13 09:01:44;;;;;;;40.80;24.50;;;10.00;99.90;;;;;;5126914;28;20054;-63
2021/11/13 09:04:11;;;;;;;38.53;24.33;;;10.10;99.90;;;;;;5121941;28;20040;-63
2021/11/13 09:06:37;;;;;;;40.28;23.48;;;10.00;99.90;;;;;;5120424;28;20047;-63
2021/11/13 09:09:04;;;;;;;38.53;25.05;;;10.00;99.90;;;;;;5098935;28;20046;-63
2021/11/13 09:11:33;;;;;;;40.13;24.42;;;10.00;99.90;;;;;;5106848;28;20058;-63
2021/11/13 09:14:00;;;;;;;38.88;24.42;;;10.10;99.90;;;;;;5114191;28;20402;-63
2021/11/13 09:16:26;;;;;;;38.75;23.63;;;10.10;99.90;;;;;;5099867;28;20047;-65
2021/11/13 09:18:53;;;;;;;36.40;25.05;;;10.20;99.90;;;;;;5104566;28;20071;-64
2021/11/13 09:21:19;;;;;;;39.35;24.80;;;10.20;99.90;;;;;;5122025;27;20105;-65
2021/11/13 09:23:45;;;;;;;37.40;23.50;;;10.20;99.90;;;;;;5121585;28;20047;-64
2021/11/13 09:26:11;;;;;;;41.80;25.90;;;10.30;99.90;;;;;;5105814;27;20055;-64
2021/11/13 09:28:38;;;;;;;39.05;24.48;;;10.20;99.90;;;;;;5120114;28;20051;-64
2021/11/13 09:31:04;;;;;;;42.53;25.83;;;10.20;99.90;;;;;;5135692;27;20044;-64
2021/11/13 09:33:31;;;;;;;40.63;25.45;;;10.10;99.90;;;;;;5114870;27;20074;-64
2021/11/13 09:35:58;;;;;;;42.05;26.10;;;10.10;99.90;;;;;;5119807;27;20035;-64
2021/11/13 09:38:26;;;;;;;44.47;24.10;;;10.10;99.90;;;;;;5131077;27;20051;-64
2021/11/13 09:40:58;;;;;;;36.85;25.13;;;10.10;99.90;;;;;;5129004;27;20084;-64
2021/11/13 09:43:26;;;;;;;39.25;24.27;;;10.20;99.90;;;;;;5138277;27;20054;-64
2021/11/13 09:45:53;;;;;;;38.78;24.10;;;10.10;99.90;;;;;;5134856;27;20039;-64
2021/11/13 09:48:19;;;;;;;39.83;25.10;;;10.10;99.90;;;;;;5127603;27;20068;-64
2021/11/13 09:50:49;;;;;;;41.60;25.10;;;10.20;99.90;;;;;;5134152;27;20067;-64
2021/11/13 09:53:16;;;;;;;38.97;25.10;;;10.20;99.90;;;;;;5135756;27;20047;-64
2021/11/13 09:55:44;;;;;;;36.92;24.92;;;10.30;99.90;;;;;;5105645;28;20047;-64
2021/11/13 09:58:10;;;;;;;37.88;24.42;;;10.30;99.90;;;;;;5113921;28;20101;-64
2021/11/13 10:00:38;;;;;;;40.10;24.80;;;10.30;99.90;;;;;;5127983;27;20096;-64
2021/11/13 10:03:04;;;;;;;38.03;25.20;;;10.40;99.90;;;;;;5112642;28;20055;-65
2021/11/13 10:05:30;;;;;;;36.88;24.55;;;10.40;99.90;;;;;;5128596;27;20055;-63
2021/11/13 10:07:56;;;;;;;39.15;25.05;;;10.60;99.90;;;;;;5121974;28;20089;-64
2021/11/13 10:10:27;;;;;;;34.90;22.92;;;10.80;99.90;;;;;;5116616;27;20050;-67
2021/11/13 10:12:56;;;;;;;36.08;23.88;;;10.70;99.90;;;;;;5106996;28;20118;-64
2021/11/13 10:15:27;;;;;;;36.75;24.17;;;10.60;99.90;;;;;;5137811;27;20047;-63
2021/11/13 10:18:34;;;;;;;37.33;24.52;;;10.60;99.90;;;;;;5120184;27;20071;-63
2021/11/13 10:21:21;;;;;;;33.70;23.52;;;10.60;99.90;;;;;;5118521;27;20050;-63
2021/11/13 10:23:52;;;;;;;34.00;23.10;;;10.60;99.90;;;;;;5112576;27;20062;-64
2021/11/13 10:26:28;;;;;;;37.67;23.30;;;10.60;99.90;;;;;;5113889;27;20032;-63
2021/11/13 10:29:10;;;;;;;40.38;24.23;;;10.50;99.90;;;;;;5120179;27;20129;-63
2021/11/13 10:31:39;;;;;;;35.63;23.10;;;10.60;99.90;;;;;;5128250;27;20516;-64
2021/11/13 10:34:11;;;;;;;37.72;23.75;;;10.50;99.90;;;;;;5123426;27;20031;-63
2021/11/13 10:36:40;;;;;;;33.90;22.80;;;10.50;99.90;;;;;;5123462;28;20073;-64
2021/11/13 10:39:13;;;;;;;38.33;23.60;;;10.50;99.90;;;;;;5110194;28;20047;-66
2021/11/13 10:42:00;;;;;;;34.70;22.33;;;10.50;99.90;;;;;;5117881;27;20483;-65
2021/11/13 10:44:35;;;;;;;38.25;23.73;;;10.50;99.90;;;;;;5110189;27;20093;-64
2021/11/13 10:47:08;;;;;;;33.53;22.48;;;10.50;99.90;;;;;;5119326;27;20095;-65
2021/11/13 10:49:34;;;;;;;35.30;22.77;;;10.60;99.90;;;;;;5123112;27;20408;-63
2021/11/13 10:52:03;;;;;;;31.83;21.73;;;10.60;99.90;;;;;;5143964;27;20068;-63
2021/11/13 10:54:30;;;;;;;31.55;21.00;;;10.70;99.90;;;;;;5108504;27;20069;-64
2021/11/13 10:57:01;;;;;;;28.10;20.67;;;10.70;99.90;;;;;;5139886;27;20090;-64
2021/11/13 10:59:30;;;;;;;34.38;23.17;;;10.60;99.90;;;;;;5117323;27;20109;-64
2021/11/13 11:02:01;;;;;;;36.65;20.77;;;10.60;99.90;;;;;;5124766;27;20095;-64
2021/11/13 11:04:30;;;;;;;33.88;20.98;;;10.60;99.90;;;;;;5123018;27;20059;-63
2021/11/13 11:07:04;;;;;;;32.13;20.55;;;10.60;99.90;;;;;;5142599;27;20046;-63
2021/11/13 11:09:36;;;;;;;32.25;20.80;;;10.60;99.90;;;;;;5132790;27;20125;-63
2021/11/13 11:12:09;;;;;;;33.97;21.08;;;10.60;99.90;;;;;;5141608;27;20038;-63
2021/11/13 11:14:38;;;;;;;33.25;21.40;;;10.50;99.90;;;;;;5143697;27;20100;-64
2021/11/13 11:17:07;;;;;;;32.83;21.85;;;10.50;99.90;;;;;;5138593;27;20072;-64
2021/11/13 11:19:35;;;;;;;34.25;21.08;;;10.50;99.90;;;;;;5119972;28;20079;-66
2021/11/13 11:22:09;;;;;;;34.95;21.73;;;10.50;99.90;;;;;;5136739;27;20043;-64
2021/11/13 11:24:43;;;;;;;35.92;20.27;;;10.50;99.90;;;;;;5136022;27;20062;-65
2021/11/13 11:27:23;;;;;;;33.35;21.23;;;10.50;99.90;;;;;;5136602;27;20043;-66
2021/11/13 11:29:55;;;;;;;34.38;22.05;;;10.50;99.90;;;;;;5103155;28;20063;-65
2021/11/13 11:32:35;;;;;;;32.85;21.02;;;10.50;99.90;;;;;;5136107;27;20051;-65
2021/11/13 11:35:06;;;;;;;34.75;22.50;;;10.60;99.90;;;;;;5116748;28;20219;-65
2021/11/13 11:37:37;;;;;;;34.22;21.83;;;10.60;99.90;;;;;;5125450;27;20042;-65
2021/11/13 11:40:16;;;;;;;33.67;22.55;;;10.60;99.90;;;;;;5142341;27;20047;-65
2021/11/13 11:42:44;;;;;;;30.05;20.35;;;10.60;99.90;;;;;;5122467;28;20051;-65
2021/11/13 11:45:14;;;;;;;32.35;21.38;;;10.70;99.90;;;;;;5121561;28;20043;-65
2021/11/13 11:47:42;;;;;;;31.88;21.50;;;10.60;99.90;;;;;;5133180;27;20047;-65
2021/11/13 11:50:11;;;;;;;33.38;22.75;;;10.60;99.90;;;;;;5138216;27;20035;-65
2021/11/13 11:52:41;;;;;;;29.65;20.85;;;10.70;99.90;;;;;;5144014;27;20511;-65
2021/11/13 11:55:07;;;;;;;28.38;20.50;;;10.70;99.90;;;;;;5139520;27;20165;-65
2021/11/13 11:57:36;;;;;;;29.60;19.35;;;10.70;99.90;;;;;;5114094;28;20067;-65
2021/11/13 12:00:07;;;;;;;29.85;20.48;;;10.70;99.90;;;;;;5119583;28;20055;-65
2021/11/13 12:02:44;;;;;;;31.23;22.30;;;10.80;99.90;;;;;;5136960;28;20106;-65
2021/11/13 12:05:16;;;;;;;30.40;20.73;;;10.80;99.90;;;;;;5144379;28;20076;-65
2021/11/13 12:07:44;;;;;;;28.63;19.42;;;10.80;99.90;;;;;;5114021;28;20054;-65
2021/11/13 12:10:23;;;;;;;31.02;20.73;;;10.80;99.90;;;;;;5113208;28;20447;-65
2021/11/13 12:13:12;;;;;;;30.17;20.38;;;10.80;99.90;;;;;;5132488;28;20103;-65
2021/11/13 12:15:47;;;;;;;27.93;19.20;;;10.80;99.90;;;;;;5144277;28;20039;-65
2021/11/13 12:18:24;;;;;;;27.25;19.52;;;10.80;99.90;;;;;;5137375;28;20340;-65
2021/11/13 12:21:06;;;;;;;26.40;18.80;;;10.80;99.90;;;;;;5141857;28;20058;-65
2021/11/13 12:24:03;;;;;;;28.60;19.60;;;10.80;99.90;;;;;;5115824;28;20063;-65
2021/11/13 12:26:34;;;;;;;24.80;18.33;;;10.80;99.90;;;;;;5136162;28;20062;-65
2021/11/13 12:29:03;;;;;;;23.55;18.08;;;10.80;99.90;;;;;;5144505;28;20043;-65
2021/11/13 12:31:44;;;;;;;24.03;18.70;;;10.80;99.90;;;;;;5132303;28;20038;-65
2021/11/13 12:34:15;;;;;;;26.42;18.50;;;10.80;99.90;;;;;;5131038;28;20321;-65
2021/11/13 12:37:05;;;;;;;28.23;18.98;;;10.90;99.90;;;;;;5109905;28;20039;-65
2021/11/13 12:39:43;;;;;;;24.23;18.45;;;10.90;99.90;;;;;;5145227;28;20047;-65